Time;durP1;ratioP1;P1;durP2;ratioP2;P2;SDS_P1;SDS_P2;PMS_P1;PMS_P2;Temp;Humidity;BMP_temperature;BMP_pressure;BME280_temperature;BME280_humidity;BME280_pressure;Samples;Min_cycle;Max_cycle;Signal;HPM_P1;HPM_P2
2021/09/22 00:04:56;;;;;;;7.80;7.20;;;14.00;33.40;;;;;;10425675;28;20613;-72
2021/09/22 00:09:59;;;;;;;7.57;6.97;;;14.00;33.00;;;;;;10427312;28;20235;-72
2021/09/22 00:15:06;;;;;;;7.93;7.13;;;13.90;32.90;;;;;;10426381;28;20230;-73
2021/09/22 00:20:12;;;;;;;7.63;6.93;;;13.90;33.40;;;;;;10436668;28;20756;-72
2021/09/22 00:25:17;;;;;;;7.50;6.90;;;13.80;33.20;;;;;;10432512;28;20221;-72
2021/09/22 00:30:21;;;;;;;6.73;6.23;;;13.70;33.20;;;;;;10433384;28;20239;-74
2021/09/22 00:35:24;;;;;;;8.13;7.53;;;13.70;33.40;;;;;;10428943;28;20229;-72
2021/09/22 00:40:28;;;;;;;9.00;8.10;;;13.70;33.20;;;;;;10424114;28;20244;-72
2021/09/22 00:45:33;;;;;;;8.33;7.73;;;13.50;33.20;;;;;;10426519;28;20226;-72
2021/09/22 00:50:36;;;;;;;8.90;8.10;;;13.50;33.60;;;;;;10431295;28;20222;-73
2021/09/22 00:55:40;;;;;;;8.47;7.77;;;13.40;33.70;;;;;;10434677;28;20225;-74
2021/09/22 01:01:01;;;;;;;8.70;8.00;;;13.40;33.70;;;;;;10430924;28;20229;-73
2021/09/22 01:06:05;;;;;;;8.97;8.20;;;13.40;33.90;;;;;;10431225;28;20703;-73
2021/09/22 01:11:08;;;;;;;8.17;7.57;;;13.30;33.60;;;;;;10425889;28;20684;-72
2021/09/22 01:16:13;;;;;;;7.77;7.07;;;13.20;33.70;;;;;;10433564;28;20230;-72
2021/09/22 01:21:21;;;;;;;8.20;7.57;;;13.20;34.10;;;;;;10430749;28;20232;-72
2021/09/22 01:26:24;;;;;;;9.20;8.40;;;13.20;34.50;;;;;;10432225;28;20252;-72
2021/09/22 01:31:28;;;;;;;9.03;8.10;;;13.20;34.00;;;;;;10428413;28;20756;-73
2021/09/22 01:36:32;;;;;;;9.00;8.30;;;13.20;34.00;;;;;;10428533;28;20240;-73
2021/09/22 01:41:36;;;;;;;9.60;8.80;;;13.10;34.20;;;;;;10429076;28;20221;-73
2021/09/22 01:46:39;;;;;;;8.40;7.70;;;13.10;33.80;;;;;;10426464;28;20331;-72
2021/09/22 01:51:44;;;;;;;10.27;8.00;;;13.00;33.90;;;;;;10427791;28;20228;-73
2021/09/22 01:56:48;;;;;;;9.33;8.53;;;12.90;34.40;;;;;;10432220;28;20751;-73
2021/09/22 02:01:52;;;;;;;6.87;6.33;;;12.80;34.10;;;;;;10428823;28;20233;-72
2021/09/22 02:06:56;;;;;;;8.70;8.00;;;12.80;34.20;;;;;;10434007;28;20227;-73
2021/09/22 02:12:00;;;;;;;8.53;7.77;;;12.80;34.70;;;;;;10425643;28;20236;-72
2021/09/22 02:17:03;;;;;;;9.20;8.40;;;12.80;34.50;;;;;;10428177;28;20228;-72
2021/09/22 02:22:08;;;;;;;7.73;7.13;;;12.70;34.30;;;;;;10424471;28;20556;-72
2021/09/22 02:27:13;;;;;;;9.37;8.67;;;12.70;34.50;;;;;;10427144;28;20223;-72
2021/09/22 02:32:19;;;;;;;8.90;8.17;;;12.60;34.40;;;;;;10424658;28;20327;-73
2021/09/22 02:37:23;;;;;;;9.53;8.73;;;12.40;34.50;;;;;;10430800;28;20244;-72
2021/09/22 02:42:27;;;;;;;9.27;8.47;;;12.30;34.80;;;;;;10421485;28;20235;-73
2021/09/22 02:47:30;;;;;;;8.07;7.47;;;12.20;34.70;;;;;;10425417;28;20236;-72
2021/09/22 02:52:35;;;;;;;7.10;6.50;;;12.10;34.90;;;;;;10421368;28;20225;-72
2021/09/22 02:57:38;;;;;;;9.13;8.17;;;12.10;35.40;;;;;;10430890;28;20243;-72
2021/09/22 03:02:41;;;;;;;9.13;8.33;;;12.10;35.30;;;;;;10422800;28;20225;-73
2021/09/22 03:07:47;;;;;;;9.23;8.53;;;12.10;35.20;;;;;;10424478;28;20700;-72
2021/09/22 03:12:52;;;;;;;8.63;7.83;;;12.20;35.60;;;;;;10423288;28;20800;-73
2021/09/22 03:17:56;;;;;;;9.10;8.30;;;12.20;35.10;;;;;;10425132;28;20731;-72
2021/09/22 03:23:00;;;;;;;7.00;6.40;;;12.20;34.80;;;;;;10430651;28;20225;-72
2021/09/22 03:28:04;;;;;;;7.70;7.10;;;12.20;35.00;;;;;;10426183;28;20225;-72
2021/09/22 03:33:08;;;;;;;8.00;7.30;;;12.20;35.00;;;;;;10424074;28;20234;-72
2021/09/22 03:38:13;;;;;;;9.33;8.53;;;12.20;35.20;;;;;;10421627;28;20729;-72
2021/09/22 03:43:16;;;;;;;8.87;8.07;;;12.20;35.20;;;;;;10430302;28;20232;-72
2021/09/22 03:48:20;;;;;;;9.07;8.37;;;12.20;35.00;;;;;;10426037;28;20224;-72
2021/09/22 03:53:25;;;;;;;8.10;7.40;;;12.20;35.20;;;;;;10423674;28;20721;-73
2021/09/22 03:58:28;;;;;;;7.27;6.67;;;12.20;35.40;;;;;;10426095;28;20229;-72
2021/09/22 04:03:31;;;;;;;6.87;6.27;;;12.20;35.10;;;;;;10429111;28;20351;-72
2021/09/22 04:08:37;;;;;;;7.17;6.57;;;12.20;35.10;;;;;;10424315;28;20233;-72
2021/09/22 04:13:40;;;;;;;7.13;6.53;;;12.20;35.40;;;;;;10429257;28;20227;-72
2021/09/22 04:18:43;;;;;;;6.93;6.27;;;12.20;35.10;;;;;;10427531;28;20225;-72
2021/09/22 04:23:48;;;;;;;6.63;6.13;;;12.20;35.00;;;;;;10432487;28;20232;-72
2021/09/22 04:28:51;;;;;;;8.83;8.03;;;12.20;35.20;;;;;;10425699;28;20233;-73
2021/09/22 04:33:54;;;;;;;8.90;8.20;;;12.10;34.80;;;;;;10419725;28;20709;-72
2021/09/22 04:38:59;;;;;;;8.87;8.07;;;12.10;34.90;;;;;;10423057;28;20335;-73
2021/09/22 04:44:02;;;;;;;8.97;7.97;;;11.90;35.20;;;;;;10381771;28;20232;-73
2021/09/22 04:49:06;;;;;;;9.30;8.47;;;11.80;35.10;;;;;;10384653;28;20218;-72
2021/09/22 04:54:10;;;;;;;8.87;8.07;;;11.80;35.30;;;;;;10387675;28;20235;-72
2021/09/22 04:59:14;;;;;;;8.03;7.30;;;11.80;35.50;;;;;;10389301;28;20229;-72
2021/09/22 05:04:17;;;;;;;7.47;6.77;;;11.70;35.40;;;;;;10399976;28;20226;-72
2021/09/22 05:09:22;;;;;;;8.07;7.47;;;11.60;35.30;;;;;;10405806;28;20320;-73
2021/09/22 05:14:25;;;;;;;7.93;7.23;;;11.60;35.80;;;;;;10418268;28;20233;-73
2021/09/22 05:19:29;;;;;;;8.53;7.73;;;11.60;35.60;;;;;;10439283;28;20236;-72
2021/09/22 05:24:34;;;;;;;8.20;7.50;;;11.60;36.40;;;;;;10431181;28;20229;-72
2021/09/22 05:29:38;;;;;;;10.17;8.27;;;11.70;36.40;;;;;;10417848;28;20625;-72
2021/09/22 05:34:42;;;;;;;8.33;7.63;;;11.70;36.00;;;;;;10425509;28;20232;-72
2021/09/22 05:39:46;;;;;;;8.10;7.30;;;11.70;36.10;;;;;;10425282;28;20226;-72
2021/09/22 05:44:49;;;;;;;9.13;8.33;;;11.70;36.30;;;;;;10427764;28;20701;-72
2021/09/22 05:49:53;;;;;;;8.90;8.13;;;11.70;36.00;;;;;;10424327;28;20232;-72
2021/09/22 05:54:57;;;;;;;8.37;7.57;;;11.70;36.10;;;;;;10430442;28;20604;-72
2021/09/22 06:00:00;;;;;;;8.20;7.50;;;11.70;36.50;;;;;;10411528;28;20241;-72
2021/09/22 06:05:05;;;;;;;8.37;7.67;;;11.70;36.30;;;;;;10427447;28;20221;-72
2021/09/22 06:10:11;;;;;;;9.27;8.37;;;11.80;36.60;;;;;;10432729;28;20315;-72
2021/09/22 06:15:14;;;;;;;9.87;8.97;;;11.80;37.20;;;;;;10430414;28;20221;-72
2021/09/22 06:20:18;;;;;;;9.57;8.67;;;11.70;36.70;;;;;;10429563;28;20240;-72
2021/09/22 06:25:23;;;;;;;10.70;9.20;;;11.70;37.00;;;;;;10434189;28;20232;-72
2021/09/22 06:30:26;;;;;;;10.87;9.83;;;11.70;37.60;;;;;;10428456;28;20233;-72
2021/09/22 06:35:29;;;;;;;11.10;10.10;;;11.80;37.50;;;;;;10436141;28;20224;-72
2021/09/22 06:40:34;;;;;;;14.53;13.23;;;11.80;37.40;;;;;;10434238;28;20248;-72
2021/09/22 06:45:37;;;;;;;11.80;10.70;;;11.90;38.00;;;;;;10427046;28;20225;-72
2021/09/22 06:50:40;;;;;;;11.63;10.53;;;12.00;37.80;;;;;;10424580;28;20229;-72
2021/09/22 06:55:45;;;;;;;12.70;11.67;;;12.00;38.40;;;;;;10426922;28;20312;-72
2021/09/22 07:00:48;;;;;;;13.77;12.47;;;12.10;38.30;;;;;;10427681;28;20239;-72
2021/09/22 07:05:52;;;;;;;12.43;11.33;;;12.20;38.00;;;;;;10426361;28;20743;-73
2021/09/22 07:10:56;;;;;;;12.70;11.50;;;12.20;38.00;;;;;;10424405;28;20245;-73
2021/09/22 07:16:00;;;;;;;11.50;10.50;;;12.40;38.70;;;;;;10420569;28;20245;-73
2021/09/22 07:21:05;;;;;;;11.93;10.83;;;12.40;38.40;;;;;;10425479;28;20227;-73
2021/09/22 07:26:10;;;;;;;13.63;11.53;;;12.50;38.30;;;;;;10419093;28;20240;-73
2021/09/22 07:31:13;;;;;;;12.40;11.20;;;12.50;38.90;;;;;;10416621;28;20225;-74
2021/09/22 07:36:16;;;;;;;12.33;11.23;;;12.50;38.50;;;;;;10427792;28;20224;-74
2021/09/22 07:41:21;;;;;;;12.90;11.60;;;12.50;38.60;;;;;;10429572;28;20718;-74
2021/09/22 07:46:24;;;;;;;14.10;12.20;;;12.60;39.40;;;;;;10444527;28;20232;-73
2021/09/22 07:51:28;;;;;;;13.53;11.77;;;12.70;39.20;;;;;;10431389;28;20220;-73
2021/09/22 07:56:33;;;;;;;13.27;12.17;;;12.80;39.20;;;;;;10433508;28;20672;-73
2021/09/22 08:01:36;;;;;;;12.53;11.43;;;12.90;39.70;;;;;;10426482;28;20259;-72
2021/09/22 08:06:40;;;;;;;14.07;12.73;;;13.00;39.30;;;;;;10437136;28;20701;-73
2021/09/22 08:11:45;;;;;;;14.80;13.47;;;13.10;39.50;;;;;;10436096;28;20239;-72
2021/09/22 08:17:11;;;;;;;12.77;11.67;;;13.20;39.90;;;;;;10430111;28;20689;-71
2021/09/22 08:22:14;;;;;;;13.53;12.30;;;13.30;39.60;;;;;;10432897;28;20316;-71
2021/09/22 08:27:19;;;;;;;13.10;11.90;;;13.50;39.60;;;;;;10433181;28;20231;-73
2021/09/22 08:32:22;;;;;;;13.23;12.13;;;13.60;39.90;;;;;;10435579;28;20248;-72
2021/09/22 08:37:26;;;;;;;12.77;11.47;;;13.80;39.60;;;;;;10429703;28;20228;-72
2021/09/22 08:42:31;;;;;;;12.87;11.77;;;13.90;39.40;;;;;;10443695;28;20346;-71
2021/09/22 08:47:34;;;;;;;11.77;10.77;;;14.10;39.80;;;;;;10440209;28;20221;-72
2021/09/22 08:52:38;;;;;;;11.50;10.60;;;14.30;39.40;;;;;;10446861;28;20717;-72
2021/09/22 08:57:43;;;;;;;11.63;10.53;;;14.40;39.40;;;;;;10437774;28;20248;-71
2021/09/22 09:02:48;;;;;;;11.00;10.00;;;14.60;39.60;;;;;;10434144;28;20225;-71
2021/09/22 09:07:54;;;;;;;9.93;8.73;;;14.80;39.40;;;;;;10431872;28;20311;-71
2021/09/22 09:13:04;;;;;;;9.20;8.40;;;15.00;38.90;;;;;;10435995;28;20262;-71
2021/09/22 09:18:12;;;;;;;9.67;8.90;;;15.10;38.50;;;;;;10433958;28;20223;-72
2021/09/22 09:23:19;;;;;;;8.87;8.07;;;15.20;38.70;;;;;;10434127;28;20226;-72
2021/09/22 09:28:27;;;;;;;9.60;8.73;;;15.40;38.60;;;;;;10438507;28;20310;-72
2021/09/22 09:33:36;;;;;;;9.80;8.50;;;15.50;38.40;;;;;;10425357;28;20233;-72
2021/09/22 09:38:40;;;;;;;9.23;8.43;;;15.60;38.40;;;;;;10433243;28;20492;-73
2021/09/22 09:43:49;;;;;;;9.30;8.50;;;15.70;38.40;;;;;;10438087;28;20231;-73
2021/09/22 09:48:58;;;;;;;9.00;8.30;;;15.70;38.40;;;;;;10437399;28;20232;-72
2021/09/22 09:54:16;;;;;;;8.93;8.10;;;15.80;38.30;;;;;;10437031;28;20231;-73
2021/09/22 09:59:22;;;;;;;9.00;8.10;;;15.90;38.70;;;;;;10436545;28;20213;-71
2021/09/22 10:04:26;;;;;;;8.97;8.07;;;16.10;38.20;;;;;;10437264;28;20242;-73
2021/09/22 10:09:30;;;;;;;7.93;7.17;;;16.20;37.80;;;;;;10449773;28;20229;-73
2021/09/22 10:14:35;;;;;;;8.50;7.80;;;16.20;37.80;;;;;;10451467;28;20233;-71
2021/09/22 10:19:38;;;;;;;8.40;7.60;;;16.30;37.60;;;;;;10437416;28;20220;-72
2021/09/22 10:24:43;;;;;;;7.77;7.07;;;16.30;37.60;;;;;;10432395;28;20220;-72
2021/09/22 10:29:57;;;;;;;6.90;6.30;;;16.40;37.90;;;;;;10434451;28;20225;-72
2021/09/22 10:35:39;;;;;;;6.47;5.97;;;16.50;38.20;;;;;;10439500;28;20218;-72
2021/09/22 10:40:49;;;;;;;6.40;5.90;;;16.60;37.90;;;;;;10431734;28;20242;-72
2021/09/22 10:46:19;;;;;;;6.00;5.50;;;16.80;38.10;;;;;;10432117;28;20225;-72
2021/09/22 10:51:29;;;;;;;8.60;6.50;;;16.90;37.90;;;;;;10414305;28;20240;-72
2021/09/22 10:56:33;;;;;;;10.17;9.20;;;17.10;37.30;;;;;;10424599;28;20212;-72
2021/09/22 11:01:53;;;;;;;7.53;5.80;;;17.20;37.80;;;;;;10432117;28;20240;-72
2021/09/22 11:06:58;;;;;;;6.50;5.87;;;17.30;37.70;;;;;;10426603;28;20227;-72
2021/09/22 11:12:05;;;;;;;5.37;4.83;;;17.50;37.60;;;;;;10424220;28;20253;-72
2021/09/22 11:17:12;;;;;;;6.00;5.43;;;17.70;37.70;;;;;;10428981;28;20225;-72
2021/09/22 11:22:18;;;;;;;5.33;4.93;;;17.80;37.30;;;;;;10428197;28;20232;-72
2021/09/22 11:27:24;;;;;;;6.10;5.03;;;18.00;37.30;;;;;;10432812;28;20236;-73
2021/09/22 11:32:34;;;;;;;6.00;5.40;;;18.20;37.20;;;;;;10431414;28;20240;-74
2021/09/22 11:37:39;;;;;;;5.03;4.63;;;18.30;37.20;;;;;;10433554;28;20232;-73
2021/09/22 11:42:54;;;;;;;5.20;4.70;;;18.40;36.80;;;;;;10428228;28;20724;-73
2021/09/22 11:47:59;;;;;;;3.80;3.23;;;18.50;36.50;;;;;;10431184;28;20222;-72
2021/09/22 11:53:02;;;;;;;5.53;4.10;;;18.60;36.40;;;;;;10416261;28;20240;-72
2021/09/22 11:58:06;;;;;;;4.00;3.67;;;18.70;36.30;;;;;;10423082;28;20222;-73
2021/09/22 12:03:13;;;;;;;4.83;3.87;;;18.70;36.30;;;;;;10429037;28;20239;-72
2021/09/22 12:08:17;;;;;;;5.00;3.87;;;18.80;35.50;;;;;;10431160;28;20875;-72
2021/09/22 12:13:20;;;;;;;4.60;3.10;;;18.90;35.60;;;;;;10435065;28;20217;-72
2021/09/22 12:18:25;;;;;;;3.33;3.00;;;18.90;35.50;;;;;;10441443;28;20236;-73
2021/09/22 12:23:31;;;;;;;4.17;2.80;;;18.90;35.50;;;;;;10437458;28;20252;-74
2021/09/22 12:28:35;;;;;;;3.30;3.00;;;19.00;35.60;;;;;;10434095;28;20235;-73
2021/09/22 12:33:40;;;;;;;4.67;2.70;;;19.00;35.60;;;;;;10440185;28;20228;-73
2021/09/22 12:38:48;;;;;;;4.20;2.90;;;19.10;35.70;;;;;;10443199;28;20231;-73
2021/09/22 12:43:59;;;;;;;3.47;2.77;;;19.10;35.10;;;;;;10442679;28;20567;-73
2021/09/22 12:49:18;;;;;;;5.63;3.03;;;19.10;34.60;;;;;;10439248;28;20233;-72
2021/09/22 12:54:22;;;;;;;2.67;2.40;;;19.10;34.40;;;;;;10442953;28;20232;-72
2021/09/22 12:59:29;;;;;;;3.60;3.00;;;19.20;35.70;;;;;;10433492;28;20233;-71
2021/09/22 13:04:34;;;;;;;3.43;2.60;;;19.20;34.80;;;;;;10438724;28;20227;-71
2021/09/22 13:09:38;;;;;;;3.90;2.77;;;19.20;35.00;;;;;;10437919;28;20237;-72
2021/09/22 13:14:42;;;;;;;2.93;2.43;;;19.20;35.30;;;;;;10434883;28;20244;-72
2021/09/22 13:19:48;;;;;;;2.53;2.33;;;19.30;35.30;;;;;;10433822;28;20610;-73
2021/09/22 13:24:51;;;;;;;3.97;2.67;;;19.40;34.90;;;;;;10440619;28;20328;-73
2021/09/22 13:29:54;;;;;;;3.93;2.40;;;19.40;35.40;;;;;;10439085;28;20278;-72
2021/09/22 13:34:59;;;;;;;3.57;2.33;;;19.50;35.20;;;;;;10439353;28;20234;-72
2021/09/22 13:40:03;;;;;;;3.33;2.50;;;19.50;34.80;;;;;;10437967;28;20317;-73
2021/09/22 13:45:07;;;;;;;4.47;2.60;;;19.60;35.20;;;;;;10427296;28;20256;-73
2021/09/22 13:50:12;;;;;;;4.50;2.63;;;19.70;35.00;;;;;;10439101;28;20229;-73
2021/09/22 13:55:16;;;;;;;2.70;2.50;;;19.80;34.80;;;;;;10437066;28;20327;-73
2021/09/22 14:00:19;;;;;;;3.60;2.50;;;19.90;34.90;;;;;;10435622;28;20233;-73
2021/09/22 14:05:24;;;;;;;2.80;2.60;;;20.00;34.80;;;;;;10429159;28;20308;-73
2021/09/22 14:10:27;;;;;;;3.50;2.20;;;20.00;34.20;;;;;;10426293;28;20351;-73
2021/09/22 14:15:33;;;;;;;2.63;2.33;;;20.10;34.50;;;;;;10428179;28;20221;-73
2021/09/22 14:20:39;;;;;;;2.97;2.20;;;20.20;34.20;;;;;;10434484;28;20594;-73
2021/09/22 14:25:44;;;;;;;2.63;2.43;;;20.30;34.00;;;;;;10428888;28;20226;-73
2021/09/22 14:30:48;;;;;;;3.90;2.30;;;20.40;34.10;;;;;;10432271;28;20245;-73
2021/09/22 14:35:53;;;;;;;4.57;2.30;;;20.40;33.90;;;;;;10435692;28;20257;-73
2021/09/22 14:40:56;;;;;;;3.93;2.60;;;20.40;33.80;;;;;;10431151;28;20235;-73
2021/09/22 14:46:00;;;;;;;4.37;2.50;;;20.40;33.40;;;;;;10439454;28;20271;-73
2021/09/22 14:51:04;;;;;;;3.10;2.47;;;20.40;33.50;;;;;;10438026;28;20279;-72
2021/09/22 14:56:08;;;;;;;3.00;2.30;;;20.30;33.50;;;;;;10437660;28;20236;-73
2021/09/22 15:01:12;;;;;;;2.23;2.03;;;20.30;33.90;;;;;;10433434;28;20299;-73
2021/09/22 15:06:17;;;;;;;4.23;2.77;;;20.30;33.80;;;;;;10438424;28;20244;-73
2021/09/22 15:11:20;;;;;;;2.60;2.23;;;20.40;33.50;;;;;;10439516;28;20794;-73
2021/09/22 15:16:24;;;;;;;2.53;2.33;;;20.40;33.80;;;;;;10430410;28;20248;-73
2021/09/22 15:21:29;;;;;;;3.53;2.60;;;20.40;33.70;;;;;;10428446;28;20236;-73
2021/09/22 15:26:32;;;;;;;3.20;2.33;;;20.50;33.30;;;;;;10433113;28;20646;-73
2021/09/22 15:31:35;;;;;;;3.20;2.03;;;20.50;33.40;;;;;;10433896;28;20939;-72
2021/09/22 15:36:40;;;;;;;3.60;2.03;;;20.50;33.30;;;;;;10426870;28;20226;-75
2021/09/22 15:41:44;;;;;;;4.30;2.37;;;20.50;32.80;;;;;;10436326;28;20233;-74
2021/09/22 15:46:50;;;;;;;3.73;2.50;;;20.50;32.90;;;;;;10440603;28;20217;-74
2021/09/22 15:51:55;;;;;;;2.93;2.20;;;20.60;32.80;;;;;;10438549;28;20232;-72
2021/09/22 15:56:59;;;;;;;3.77;2.30;;;20.60;32.30;;;;;;10436508;28;20274;-73
2021/09/22 16:02:02;;;;;;;2.23;2.07;;;20.50;32.40;;;;;;10436194;28;20572;-73
2021/09/22 16:07:08;;;;;;;2.70;2.27;;;20.50;32.50;;;;;;10438840;28;20220;-73
2021/09/22 16:12:11;;;;;;;3.60;2.27;;;20.50;32.50;;;;;;10429227;28;20282;-72
2021/09/22 16:17:15;;;;;;;3.37;2.50;;;20.50;33.00;;;;;;10437008;28;20764;-74
2021/09/22 16:22:20;;;;;;;3.57;2.27;;;20.50;33.00;;;;;;10435827;28;20228;-74
2021/09/22 16:27:24;;;;;;;3.20;2.10;;;20.40;32.70;;;;;;10435790;28;20270;-74
2021/09/22 16:32:27;;;;;;;2.40;2.20;;;20.40;33.00;;;;;;10424531;28;20768;-74
2021/09/22 16:37:37;;;;;;;2.57;2.37;;;20.30;33.20;;;;;;10430893;28;20934;-73
2021/09/22 16:42:40;;;;;;;3.40;2.50;;;20.30;33.40;;;;;;10435873;28;20539;-74
2021/09/22 16:47:43;;;;;;;2.60;2.40;;;20.30;33.50;;;;;;10435892;28;20225;-73
2021/09/22 16:52:48;;;;;;;4.30;2.90;;;20.30;33.60;;;;;;10439471;28;20298;-73
2021/09/22 16:57:51;;;;;;;2.80;2.50;;;20.20;33.70;;;;;;10433015;28;20235;-74
2021/09/22 17:02:58;;;;;;;3.90;2.77;;;20.20;33.70;;;;;;10446293;28;20312;-74
2021/09/22 17:08:04;;;;;;;4.60;3.13;;;20.10;33.60;;;;;;10443587;28;20236;-74
2021/09/22 17:13:10;;;;;;;3.03;2.67;;;20.10;33.70;;;;;;10443142;28;20311;-74
2021/09/22 17:18:14;;;;;;;4.77;2.90;;;20.00;33.70;;;;;;10443220;28;20224;-74
2021/09/22 17:23:18;;;;;;;3.13;2.77;;;19.90;33.60;;;;;;10438242;28;20244;-73
2021/09/22 17:28:22;;;;;;;5.90;3.10;;;19.80;33.70;;;;;;10440383;28;20239;-74
2021/09/22 17:33:26;;;;;;;3.90;2.90;;;19.80;33.60;;;;;;10444458;28;20259;-74
2021/09/22 17:38:31;;;;;;;3.57;3.07;;;19.60;33.40;;;;;;10445071;28;20233;-74
2021/09/22 17:43:34;;;;;;;7.10;6.40;;;19.50;33.50;;;;;;10440829;28;20320;-74
2021/09/22 17:48:37;;;;;;;7.77;6.63;;;19.30;33.30;;;;;;10434631;28;20286;-74
2021/09/22 17:53:42;;;;;;;8.83;7.97;;;19.10;33.40;;;;;;10439993;28;20789;-73
2021/09/22 17:58:45;;;;;;;9.93;8.90;;;18.80;33.80;;;;;;10440273;28;20225;-74
2021/09/22 18:03:51;;;;;;;11.00;8.97;;;18.70;34.00;;;;;;10438471;28;20237;-74
2021/09/22 18:08:56;;;;;;;8.07;7.27;;;18.60;34.10;;;;;;10435472;28;20659;-75
2021/09/22 18:13:59;;;;;;;7.10;6.43;;;18.60;34.30;;;;;;10434097;28;20279;-74
2021/09/22 18:19:06;;;;;;;8.37;7.57;;;18.60;34.10;;;;;;10423499;28;20312;-75
2021/09/22 18:24:11;;;;;;;8.60;7.67;;;18.50;34.00;;;;;;10423073;28;20233;-72
2021/09/22 18:29:14;;;;;;;8.23;7.43;;;18.50;34.70;;;;;;10422019;28;20229;-72
2021/09/22 18:34:18;;;;;;;8.80;7.10;;;18.40;33.90;;;;;;10422829;28;20224;-73
2021/09/22 18:39:23;;;;;;;7.20;6.50;;;18.30;33.90;;;;;;10420117;28;22782;-75
2021/09/22 18:44:27;;;;;;;7.23;6.60;;;18.20;34.00;;;;;;10419980;28;20308;-74
2021/09/22 18:49:30;;;;;;;6.43;5.90;;;18.20;34.00;;;;;;10420134;28;20740;-75
2021/09/22 18:54:35;;;;;;;6.67;6.03;;;18.10;33.90;;;;;;10421777;28;20316;-74
2021/09/22 18:59:39;;;;;;;7.47;6.33;;;18.00;33.80;;;;;;10418718;28;20290;-73
2021/09/22 19:04:42;;;;;;;8.30;7.60;;;18.00;33.80;;;;;;10418390;28;20217;-74
2021/09/22 19:09:46;;;;;;;9.07;7.10;;;17.90;33.70;;;;;;10421633;28;20809;-75
2021/09/22 19:14:50;;;;;;;6.87;6.27;;;17.70;33.40;;;;;;10425616;28;20905;-75
2021/09/22 19:19:53;;;;;;;6.43;5.87;;;17.50;33.50;;;;;;10421671;28;20760;-74
2021/09/22 19:25:00;;;;;;;5.70;5.23;;;17.30;34.10;;;;;;10423938;28;20225;-74
2021/09/22 19:30:05;;;;;;;5.17;4.67;;;17.10;34.00;;;;;;10425745;28;20241;-73
2021/09/22 19:35:09;;;;;;;6.50;5.67;;;17.00;33.90;;;;;;10427515;28;20233;-77
2021/09/22 19:40:15;;;;;;;5.80;5.30;;;17.00;33.90;;;;;;10423412;28;20229;-76
2021/09/22 19:45:19;;;;;;;6.80;4.87;;;16.90;33.80;;;;;;10422321;28;20889;-73
2021/09/22 19:50:22;;;;;;;5.10;4.70;;;16.70;33.60;;;;;;10425145;28;20228;-75
2021/09/22 19:55:27;;;;;;;6.17;4.77;;;16.50;33.60;;;;;;10422915;28;20291;-73
2021/09/22 20:00:31;;;;;;;4.97;4.57;;;16.30;34.20;;;;;;10430116;28;20232;-75
2021/09/22 20:05:34;;;;;;;6.40;5.80;;;16.30;34.40;;;;;;10423687;28;20225;-73
2021/09/22 20:10:39;;;;;;;6.10;5.60;;;16.20;34.40;;;;;;10427559;28;20220;-74
2021/09/22 20:15:43;;;;;;;6.50;5.20;;;16.20;34.60;;;;;;10425438;28;20253;-77
2021/09/22 20:20:47;;;;;;;6.03;5.47;;;16.20;34.50;;;;;;10426318;28;20719;-74
2021/09/22 20:25:52;;;;;;;5.80;5.03;;;16.20;34.30;;;;;;10426125;28;20231;-75
2021/09/22 20:30:55;;;;;;;5.20;4.80;;;16.20;34.40;;;;;;10426264;28;20229;-76
2021/09/22 20:35:58;;;;;;;5.83;5.33;;;16.10;34.20;;;;;;10439158;28;20315;-73
2021/09/22 20:41:04;;;;;;;6.60;6.00;;;16.10;34.30;;;;;;10437307;28;20228;-73
2021/09/22 20:46:08;;;;;;;6.87;6.17;;;16.10;34.40;;;;;;10435986;28;20247;-74
2021/09/22 20:51:11;;;;;;;6.50;5.90;;;16.10;34.40;;;;;;10440349;28;20229;-74
2021/09/22 20:56:16;;;;;;;6.93;6.27;;;16.00;34.30;;;;;;10439647;28;20225;-72
2021/09/22 21:01:19;;;;;;;6.50;6.00;;;16.00;34.30;;;;;;10437765;28;20224;-72
2021/09/22 21:06:23;;;;;;;5.97;5.37;;;15.90;34.20;;;;;;10437188;28;20700;-72
2021/09/22 21:11:29;;;;;;;6.40;5.90;;;15.90;34.30;;;;;;10432972;28;20726;-75
2021/09/22 21:16:32;;;;;;;6.10;5.50;;;15.90;34.50;;;;;;10434476;28;20221;-73
2021/09/22 21:21:36;;;;;;;5.83;5.33;;;15.80;34.40;;;;;;10435737;28;20235;-72
2021/09/22 21:26:40;;;;;;;6.23;5.47;;;15.80;34.40;;;;;;10478177;23;20232;-80
2021/09/22 21:31:44;;;;;;;5.63;5.20;;;15.80;34.40;;;;;;10468139;28;20216;-80
2021/09/22 21:36:47;;;;;;;5.77;5.17;;;15.70;34.10;;;;;;10477054;28;20595;-80
2021/09/22 21:41:52;;;;;;;5.83;5.33;;;15.60;34.30;;;;;;10477268;28;20224;-81
2021/09/22 21:46:55;;;;;;;4.93;4.53;;;15.60;34.30;;;;;;10471978;28;20811;-72
2021/09/22 21:51:59;;;;;;;5.43;4.00;;;15.50;34.20;;;;;;10466809;28;20239;-72
2021/09/22 21:57:03;;;;;;;5.97;5.33;;;15.50;34.30;;;;;;10486075;28;20311;-77
2021/09/22 22:02:07;;;;;;;5.17;4.67;;;15.40;34.20;;;;;;10484269;28;20387;-77
2021/09/22 22:07:10;;;;;;;5.90;4.67;;;15.20;33.90;;;;;;10486139;28;20298;-77
2021/09/22 22:12:15;;;;;;;6.13;5.07;;;15.10;34.10;;;;;;10483677;28;20251;-77
2021/09/22 22:17:19;;;;;;;5.07;4.53;;;15.00;34.20;;;;;;10485971;28;20221;-78
2021/09/22 22:22:23;;;;;;;4.80;4.10;;;14.80;34.10;;;;;;10485573;28;20231;-78
2021/09/22 22:27:27;;;;;;;4.70;4.30;;;14.70;34.30;;;;;;10480939;28;20324;-78
2021/09/22 22:32:31;;;;;;;4.90;4.50;;;14.60;34.60;;;;;;10477586;28;20232;-78
2021/09/22 22:37:34;;;;;;;4.90;4.37;;;14.50;34.40;;;;;;10486432;28;20277;-78
2021/09/22 22:42:39;;;;;;;4.43;4.03;;;14.40;35.20;;;;;;10478768;28;20286;-78
2021/09/22 22:47:43;;;;;;;3.90;3.60;;;14.40;34.80;;;;;;10480897;28;20821;-78
2021/09/22 22:52:46;;;;;;;4.23;3.83;;;14.30;34.70;;;;;;10485013;28;20311;-78
2021/09/22 22:57:51;;;;;;;5.87;4.30;;;14.20;34.80;;;;;;10477676;28;20307;-78
2021/09/22 23:02:54;;;;;;;4.63;4.07;;;14.20;35.10;;;;;;10485646;28;20311;-78
2021/09/22 23:07:58;;;;;;;4.90;4.50;;;14.10;34.90;;;;;;10484732;28;20228;-78
2021/09/22 23:13:03;;;;;;;4.30;4.00;;;14.10;35.00;;;;;;10480634;28;20281;-78
2021/09/22 23:18:16;;;;;;;4.10;3.70;;;14.00;35.10;;;;;;10481884;28;20224;-78
2021/09/22 23:23:19;;;;;;;4.40;4.00;;;14.00;35.00;;;;;;10480155;28;20640;-78
2021/09/22 23:28:24;;;;;;;3.93;3.60;;;13.90;35.00;;;;;;10487921;28;20303;-78
2021/09/22 23:33:28;;;;;;;4.60;4.10;;;13.90;35.30;;;;;;10476492;28;20277;-78
2021/09/22 23:38:31;;;;;;;4.43;4.10;;;13.80;35.10;;;;;;10488193;28;20239;-78
2021/09/22 23:43:36;;;;;;;5.23;3.80;;;13.80;35.10;;;;;;10483757;28;20228;-78
2021/09/22 23:48:39;;;;;;;6.87;4.00;;;13.70;35.20;;;;;;10473309;28;20221;-78
2021/09/22 23:53:43;;;;;;;3.90;3.60;;;13.60;35.20;;;;;;10483306;28;20273;-78
2021/09/22 23:58:47;;;;;;;4.33;3.90;;;13.50;35.40;;;;;;10482645;28;20263;-79
